Time;durP1;ratioP1;P1;durP2;ratioP2;P2;SDS_P1;SDS_P2;PMS_P1;PMS_P2;Temp;Humidity;BMP_temperature;BMP_pressure;BME280_temperature;BME280_humidity;BME280_pressure;Samples;Min_cycle;Max_cycle;Signal;HPM_P1;HPM_P2
2022/06/01 00:01:48;;;;;;;29.10;26.00;;;;;;;9.70;94.15;101222.38;5071333;28;20536;-90
2022/06/01 00:04:15;;;;;;;28.83;25.90;;;;;;;9.60;94.44;101209.22;5070283;28;20024;-90
2022/06/01 00:06:40;;;;;;;28.33;25.33;;;;;;;9.59;94.65;101207.53;5054131;28;20020;-90
2022/06/01 00:09:06;;;;;;;31.70;27.70;;;;;;;9.59;94.82;101204.00;5070285;28;20166;-90
2022/06/01 00:11:32;;;;;;;33.23;28.17;;;;;;;9.61;94.54;101207.31;5070066;28;20044;-91
2022/06/01 00:13:58;;;;;;;34.43;29.10;;;;;;;9.51;94.64;101202.25;5071811;28;20103;-90
2022/06/01 00:16:24;;;;;;;32.87;29.30;;;;;;;9.54;94.67;101209.97;5068663;28;20021;-90
2022/06/01 00:18:50;;;;;;;33.60;29.77;;;;;;;9.61;95.03;101221.72;5069274;28;20031;-90
2022/06/01 00:21:15;;;;;;;32.47;28.97;;;;;;;9.61;95.36;101215.44;5083472;28;20590;-90
2022/06/01 00:23:40;;;;;;;33.43;29.97;;;;;;;9.61;95.39;101223.56;5067652;28;20029;-90
2022/06/01 00:26:06;;;;;;;32.10;28.67;;;;;;;9.60;95.49;101225.44;5060718;28;20104;-90
2022/06/01 00:28:32;;;;;;;31.97;28.63;;;;;;;9.65;96.09;101232.94;5064076;28;20056;-90
2022/06/01 00:30:57;;;;;;;31.83;28.73;;;;;;;9.63;96.13;101229.63;5067670;28;20039;-90
2022/06/01 00:33:23;;;;;;;31.23;27.93;;;;;;;9.51;96.03;101199.56;5065957;28;20374;-90
2022/06/01 00:35:49;;;;;;;32.13;28.90;;;;;;;9.55;96.30;101214.38;5068849;28;20024;-90
2022/06/01 00:38:16;;;;;;;31.83;28.63;;;;;;;9.56;96.09;101221.44;5069045;28;20013;-91
2022/06/01 00:40:44;;;;;;;31.93;28.73;;;;;;;9.55;96.42;101218.94;5066780;28;20465;-90
2022/06/01 00:43:29;;;;;;;33.60;30.20;;;;;;;9.59;96.48;101225.63;5070378;28;20102;-91
2022/06/01 00:45:54;;;;;;;34.15;30.65;;;;;;;9.56;96.40;101218.75;5069889;28;20130;-91
2022/06/01 00:48:24;;;;;;;33.70;30.20;;;;;;;9.64;96.69;101239.38;5068082;28;20486;-90
2022/06/01 00:50:49;;;;;;;33.10;29.70;;;;;;;9.62;96.45;101227.94;5069903;28;20030;-91
2022/06/01 00:53:19;;;;;;;32.40;29.10;;;;;;;9.60;96.63;101232.69;5066457;28;20477;-91
2022/06/01 00:55:54;;;;;;;32.40;29.10;;;;;;;9.55;96.36;101221.66;5071992;28;20032;-90
2022/06/01 00:58:25;;;;;;;;;;;;;;;9.68;95.38;101231.72;5072990;28;20028;-91
2022/06/01 01:00:52;;;;;;;32.00;28.33;;;;;;;9.42;95.51;101211.53;5068097;28;20389;-90
2022/06/01 01:03:21;;;;;;;31.00;27.90;;;;;;;9.49;95.72;101230.53;5068174;28;20031;-91
2022/06/01 01:05:55;;;;;;;30.70;27.40;;;;;;;9.44;95.77;101221.13;5072542;28;20029;-91
2022/06/01 01:08:20;;;;;;;30.77;27.67;;;;;;;9.41;95.69;101209.88;5066954;28;20477;-91
2022/06/01 01:10:46;;;;;;;30.73;27.63;;;;;;;9.41;95.78;101226.09;5071575;28;20029;-91
2022/06/01 01:13:14;;;;;;;31.13;27.83;;;;;;;9.35;95.87;101218.78;5071923;28;20032;-91
2022/06/01 01:15:52;;;;;;;31.60;28.40;;;;;;;9.25;95.90;101206.41;5066332;28;20024;-90
2022/06/01 01:18:25;;;;;;;31.60;28.50;;;;;;;9.32;96.06;101219.16;5076838;28;20024;-91
2022/06/01 01:21:03;;;;;;;31.50;28.10;;;;;;;9.29;96.36;101207.69;5070242;28;20035;-90
2022/06/01 01:23:42;;;;;;;31.37;28.13;;;;;;;9.27;96.20;101217.03;5088651;28;20040;-91
2022/06/01 01:26:09;;;;;;;32.10;28.70;;;;;;;9.25;96.10;101222.63;5066845;28;20036;-91
2022/06/01 01:28:34;;;;;;;32.73;29.30;;;;;;;9.27;96.39;101214.31;5066333;28;20424;-91
2022/06/01 01:31:02;;;;;;;33.83;30.43;;;;;;;9.23;96.98;101216.59;5069534;28;20024;-91
2022/06/01 01:33:29;;;;;;;33.23;29.83;;;;;;;9.24;97.03;101223.66;5061782;28;20097;-91
2022/06/01 01:36:02;;;;;;;34.83;31.23;;;;;;;9.27;97.49;101226.00;5082800;28;20028;-91
2022/06/01 01:38:48;;;;;;;34.43;30.87;;;;;;;9.33;97.49;101218.13;5063172;28;20033;-91
2022/06/01 01:41:39;;;;;;;35.87;32.00;;;;;;;9.39;97.45;101222.75;5068599;28;20029;-90
2022/06/01 01:44:30;;;;;;;36.67;32.80;;;;;;;9.25;97.39;101195.59;5089303;28;20024;-90
2022/06/01 01:46:58;;;;;;;37.03;33.10;;;;;;;9.27;97.44;101209.78;5063905;28;20028;-91
2022/06/01 01:49:26;;;;;;;37.57;33.60;;;;;;;9.39;97.95;101225.47;5066647;28;20393;-90
2022/06/01 01:51:58;;;;;;;37.47;33.47;;;;;;;9.29;98.34;101202.28;5062132;28;20523;-91
2022/06/01 01:54:35;;;;;;;38.93;34.70;;;;;;;9.43;98.56;101213.22;5057760;28;20033;-91
2022/06/01 01:57:03;;;;;;;39.27;35.07;;;;;;;9.55;98.94;101227.88;5063353;28;20040;-91
2022/06/01 01:59:59;;;;;;;40.13;35.83;;;;;;;9.47;98.86;101211.81;5058861;28;20037;-91
2022/06/01 02:02:33;;;;;;;38.17;34.10;;;;;;;9.54;98.37;101226.22;5063803;28;20068;-91
2022/06/01 02:08:28;;;;;;;39.20;35.20;;;;;;;9.52;98.31;101211.19;5062047;28;20074;-91
2022/06/01 02:13:52;;;;;;;37.90;34.00;;;;;;;9.52;97.96;101217.47;5060017;28;20188;-91
2022/06/01 02:16:20;;;;;;;38.33;34.43;;;;;;;9.51;97.75;101214.97;5054633;28;20032;-91
2022/06/01 02:18:50;;;;;;;38.07;34.07;;;;;;;9.60;97.82;101230.00;5053904;28;20028;-90
2022/06/01 02:21:20;;;;;;;37.83;34.03;;;;;;;9.60;97.85;101225.44;5059277;28;20039;-91
2022/06/01 02:23:49;;;;;;;38.70;34.60;;;;;;;9.57;97.75;101215.03;5061404;28;20373;-91
2022/06/01 02:26:15;;;;;;;38.23;34.33;;;;;;;9.45;97.43;101201.19;5055048;28;20036;-91
2022/06/01 02:28:43;;;;;;;37.83;34.03;;;;;;;9.47;97.44;101203.69;5060695;28;20080;-91
2022/06/01 02:31:10;;;;;;;38.50;34.43;;;;;;;9.64;97.52;101223.16;5059580;28;20392;-91
2022/06/01 02:33:37;;;;;;;38.93;34.90;;;;;;;9.46;97.21;101199.31;5061413;28;20053;-91
2022/06/01 02:36:06;;;;;;;38.87;34.67;;;;;;;9.59;97.42;101218.34;5056236;28;20040;-91
2022/06/01 02:38:54;;;;;;;38.90;34.77;;;;;;;9.57;97.27;101204.19;5056962;28;20024;-91
2022/06/01 02:44:03;;;;;;;37.05;33.20;;;;;;;9.62;96.72;101217.13;5060417;28;20066;-91
2022/06/01 02:46:30;;;;;;;36.07;32.27;;;;;;;9.59;96.60;101214.81;5057999;28;20062;-91
2022/06/01 02:48:55;;;;;;;50.50;33.37;;;;;;;9.53;96.44;101202.06;5059044;28;20035;-91
2022/06/01 02:51:21;;;;;;;37.23;33.33;;;;;;;9.54;96.58;101212.69;5059087;28;20032;-90
2022/06/01 02:53:47;;;;;;;35.97;32.17;;;;;;;9.56;96.36;101223.31;5058551;28;20028;-91
2022/06/01 02:56:15;;;;;;;36.40;32.70;;;;;;;9.43;96.13;101203.22;5057231;28;20451;-91
2022/06/01 02:58:41;;;;;;;35.63;31.73;;;;;;;9.49;96.06;101215.13;5052517;28;20044;-91
2022/06/01 03:01:07;;;;;;;34.40;30.77;;;;;;;9.35;95.72;101194.44;5056388;28;20028;-91
2022/06/01 03:03:36;;;;;;;35.47;31.73;;;;;;;9.38;95.33;101199.44;5058034;28;20028;-91
2022/06/01 03:06:02;;;;;;;34.93;31.23;;;;;;;9.29;95.02;101196.88;5051764;28;20094;-90
2022/06/01 03:08:28;;;;;;;35.20;31.40;;;;;;;9.26;95.19;101197.28;5049377;28;20401;-90
2022/06/01 03:10:54;;;;;;;35.03;31.23;;;;;;;9.22;95.26;101196.00;5074667;28;20036;-91
2022/06/01 03:13:21;;;;;;;35.73;31.83;;;;;;;9.24;95.32;101212.84;5059512;28;20135;-90
2022/06/01 03:15:48;;;;;;;34.37;30.67;;;;;;;9.12;95.35;101201.72;5075503;28;20037;-91
2022/06/01 03:18:13;;;;;;;35.10;31.40;;;;;;;9.20;95.28;101214.25;5053374;28;20028;-90
2022/06/01 03:20:40;;;;;;;35.33;31.37;;;;;;;9.00;95.50;101189.72;5055131;28;20063;-90
2022/06/01 03:23:05;;;;;;;36.47;32.37;;;;;;;9.11;95.64;101218.13;5058808;28;20060;-90
2022/06/01 03:25:31;;;;;;;36.37;32.47;;;;;;;9.09;95.69;101218.31;5056836;28;20453;-90
2022/06/01 03:27:59;;;;;;;36.63;32.67;;;;;;;8.89;95.70;101191.06;5048915;28;20049;-90
2022/06/01 03:30:26;;;;;;;35.80;31.27;;;;;;;8.94;95.69;101198.63;5049719;28;20495;-90
2022/06/01 03:32:51;;;;;;;37.63;32.97;;;;;;;8.83;95.88;101197.28;5052613;28;20033;-90
2022/06/01 03:35:19;;;;;;;37.73;33.20;;;;;;;8.97;95.89;101219.03;5034393;28;20048;-90
2022/06/01 03:37:45;;;;;;;37.53;32.53;;;;;;;8.81;95.91;101204.72;5056474;28;20043;-90
2022/06/01 03:40:11;;;;;;;37.23;32.47;;;;;;;8.75;96.16;101202.78;5056152;28;20032;-90
2022/06/01 03:42:37;;;;;;;37.20;32.90;;;;;;;8.71;96.12;101205.03;5056658;28;20032;-90
2022/06/01 03:47:48;;;;;;;37.00;32.93;;;;;;;8.64;96.50;101208.72;5056981;28;20036;-91
2022/06/01 03:50:13;;;;;;;37.10;33.10;;;;;;;8.52;97.32;101203.78;5050556;28;20028;-91
2022/06/01 03:52:39;;;;;;;37.53;32.77;;;;;;;8.64;97.06;101231.13;5050594;28;20576;-91
2022/06/01 03:55:08;;;;;;;38.00;32.07;;;;;;;8.66;97.04;101220.97;5049279;28;20050;-90
2022/06/01 03:57:34;;;;;;;37.27;32.77;;;;;;;8.55;96.87;101211.50;5056752;28;20119;-91
2022/06/01 04:00:00;;;;;;;35.97;32.07;;;;;;;8.48;96.98;101205.19;5056470;28;20508;-90
2022/06/01 04:02:25;;;;;;;35.57;31.70;;;;;;;8.63;97.13;101234.03;5054897;28;20101;-90
2022/06/01 04:04:51;;;;;;;37.40;32.20;;;;;;;8.61;97.24;101226.94;5039362;28;20074;-90
2022/06/01 04:07:16;;;;;;;35.43;31.40;;;;;;;8.53;97.06;101212.72;5048359;28;20264;-91
2022/06/01 04:09:41;;;;;;;36.77;31.80;;;;;;;8.52;96.91;101211.88;5055449;28;20534;-90
2022/06/01 04:12:07;;;;;;;35.30;31.30;;;;;;;8.58;96.99;101223.78;5051274;28;20082;-90
2022/06/01 04:14:32;;;;;;;33.97;30.03;;;;;;;8.57;96.88;101217.56;5055298;28;20028;-90
2022/06/01 04:16:58;;;;;;;34.03;30.20;;;;;;;8.62;96.83;101230.47;5054814;28;20465;-91
2022/06/01 04:19:23;;;;;;;33.70;29.03;;;;;;;8.69;96.79;101238.66;5037147;28;20444;-91
2022/06/01 04:21:52;;;;;;;32.87;29.27;;;;;;;8.60;96.90;101224.44;5057271;28;20028;-90
2022/06/01 04:24:22;;;;;;;33.07;28.80;;;;;;;8.64;96.56;101227.63;5057512;28;20294;-91
2022/06/01 04:26:47;;;;;;;34.70;29.63;;;;;;;8.65;96.82;101231.97;5052376;28;20036;-90
2022/06/01 04:29:15;;;;;;;33.37;29.00;;;;;;;8.74;96.92;101241.63;5057730;28;20109;-90
2022/06/01 04:31:40;;;;;;;32.23;27.17;;;;;;;8.76;96.72;101239.59;5059620;28;20450;-90
2022/06/01 04:34:06;;;;;;;31.17;27.73;;;;;;;8.70;97.12;101226.84;5054637;28;20037;-90
2022/06/01 04:36:32;;;;;;;33.67;27.90;;;;;;;8.75;97.10;101227.09;5061506;28;20033;-90
2022/06/01 04:38:57;;;;;;;32.50;27.67;;;;;;;8.74;96.88;101225.44;5060750;28;20036;-90
2022/06/01 04:41:23;;;;;;;31.40;27.30;;;;;;;8.83;96.64;101232.41;5055342;28;20028;-91
2022/06/01 04:43:48;;;;;;;32.20;26.80;;;;;;;8.81;96.60;101220.94;5062408;28;20480;-90
2022/06/01 04:46:14;;;;;;;31.50;27.07;;;;;;;8.86;96.50;101221.19;5058660;28;20021;-89
2022/06/01 04:48:39;;;;;;;31.40;25.97;;;;;;;8.86;96.22;101228.47;5058781;28;20090;-91
2022/06/01 04:51:05;;;;;;;30.83;26.60;;;;;;;8.95;96.08;101236.28;5054293;28;20029;-90
2022/06/01 04:53:31;;;;;;;31.47;26.00;;;;;;;8.97;96.19;101227.13;5057100;28;20387;-90
2022/06/01 04:55:56;;;;;;;31.17;25.87;;;;;;;8.99;95.76;101230.47;5052974;28;20025;-91
2022/06/01 04:58:22;;;;;;;31.20;26.53;;;;;;;8.97;95.91;101221.72;5059625;28;20591;-90
2022/06/01 05:00:47;;;;;;;30.90;25.60;;;;;;;9.00;95.84;101232.97;5060726;28;20468;-90
2022/06/01 05:03:13;;;;;;;29.77;25.53;;;;;;;9.00;95.59;101232.16;5060724;28;20103;-91
2022/06/01 05:05:39;;;;;;;30.30;26.97;;;;;;;9.02;95.77;101228.22;5061688;28;20077;-90
2022/06/01 05:08:07;;;;;;;31.17;25.03;;;;;;;9.06;95.71;101234.09;5058220;28;20143;-90
2022/06/01 05:10:33;;;;;;;31.43;26.53;;;;;;;9.12;95.76;101244.13;5062673;28;20035;-90
2022/06/01 05:12:58;;;;;;;31.70;25.33;;;;;;;9.15;95.76;101246.44;5060252;28;20032;-91
2022/06/01 05:15:24;;;;;;;32.10;25.57;;;;;;;9.14;95.66;101239.38;5061685;28;20098;-89
2022/06/01 05:17:50;;;;;;;32.70;26.30;;;;;;;9.13;95.95;101229.59;5061216;28;21891;-89
2022/06/01 05:20:18;;;;;;;29.77;24.00;;;;;;;9.17;95.50;101230.88;5060043;28;20025;-89
2022/06/01 05:22:46;;;;;;;28.30;24.90;;;;;;;9.20;95.41;101238.59;5062000;28;20025;-90
2022/06/01 05:25:11;;;;;;;31.57;25.53;;;;;;;9.23;95.49;101230.13;5062422;28;20093;-91
2022/06/01 05:27:37;;;;;;;30.50;25.47;;;;;;;9.28;95.45;101233.06;5071045;28;20991;-91
2022/06/01 05:30:08;;;;;;;30.53;24.93;;;;;;;9.35;95.99;101238.53;5068698;28;20032;-91
2022/06/01 05:32:34;;;;;;;28.97;24.63;;;;;;;9.40;96.03;101233.38;5068720;28;20036;-91
2022/06/01 05:34:59;;;;;;;31.47;23.67;;;;;;;9.44;95.72;101225.72;5065988;28;20032;-90
2022/06/01 05:37:24;;;;;;;29.10;23.87;;;;;;;9.53;95.51;101231.81;5061903;28;20133;-90
2022/06/01 05:39:52;;;;;;;27.83;23.20;;;;;;;9.54;95.28;101217.28;5051833;28;20028;-91
2022/06/01 05:42:18;;;;;;;31.60;22.83;;;;;;;9.70;95.37;101238.63;5068807;28;20385;-90
2022/06/01 05:44:44;;;;;;;30.53;23.30;;;;;;;9.79;95.61;101250.13;5070084;28;20016;-90
2022/06/01 05:47:09;;;;;;;30.53;23.50;;;;;;;9.85;95.96;101252.06;5062858;28;20021;-90
2022/06/01 05:49:35;;;;;;;29.03;21.90;;;;;;;9.89;95.23;101257.91;5064264;28;20107;-90
2022/06/01 05:52:00;;;;;;;28.53;21.97;;;;;;;9.95;95.35;101257.13;5070149;28;20107;-89
2022/06/01 05:54:25;;;;;;;28.57;21.70;;;;;;;9.94;95.04;101248.16;5068376;28;20071;-90
2022/06/01 05:56:51;;;;;;;27.30;21.87;;;;;;;10.05;95.11;101259.47;5066713;28;20029;-87
2022/06/01 05:59:16;;;;;;;27.20;21.07;;;;;;;10.13;94.91;101262.88;5071551;28;20028;-90
2022/06/01 06:01:42;;;;;;;27.20;20.57;;;;;;;10.14;94.50;101252.88;5053212;28;20495;-89
2022/06/01 06:04:07;;;;;;;28.20;21.77;;;;;;;10.19;93.82;101255.81;5061211;28;20024;-90
2022/06/01 06:06:33;;;;;;;26.47;19.63;;;;;;;10.38;93.84;101275.13;5069981;28;20091;-89
2022/06/01 06:09:04;;;;;;;26.57;19.67;;;;;;;10.46;94.23;101272.25;5067698;28;20028;-89
2022/06/01 06:11:32;;;;;;;24.93;19.47;;;;;;;10.57;94.03;101279.81;5069895;28;20380;-89
2022/06/01 06:14:02;;;;;;;26.77;19.13;;;;;;;10.60;93.61;101273.97;5069712;28;20056;-88
2022/06/01 06:16:30;;;;;;;24.90;18.57;;;;;;;10.72;93.18;101270.72;5068541;28;20025;-89
2022/06/01 06:18:56;;;;;;;24.90;19.10;;;;;;;10.85;93.15;101269.91;5065835;28;20035;-88
2022/06/01 06:21:27;;;;;;;23.97;18.17;;;;;;;11.04;93.02;101281.84;5062920;28;20036;-84
2022/06/01 06:23:56;;;;;;;23.60;17.53;;;;;;;11.11;92.43;101274.56;5044221;28;20116;-90
2022/06/01 06:26:21;;;;;;;25.10;18.07;;;;;;;11.11;91.71;101272.72;5043118;28;20024;-91
2022/06/01 06:28:47;;;;;;;25.07;18.00;;;;;;;11.38;93.09;101286.34;5067139;28;20416;-91
2022/06/01 06:31:13;;;;;;;25.23;16.60;;;;;;;11.35;90.71;101285.91;5050108;28;20204;-91
2022/06/01 06:33:40;;;;;;;23.50;16.33;;;;;;;11.34;89.74;101285.03;5049757;28;20074;-91
2022/06/01 06:36:11;;;;;;;22.10;15.90;;;;;;;11.44;90.52;101276.53;5056572;28;20106;-90
2022/06/01 06:38:39;;;;;;;21.87;16.20;;;;;;;11.64;90.32;101299.09;5050888;28;20128;-90
2022/06/01 06:41:05;;;;;;;22.30;14.77;;;;;;;11.76;89.15;101303.88;5055840;28;20464;-91
2022/06/01 06:43:34;;;;;;;20.73;14.27;;;;;;;11.72;88.94;101278.19;5054490;28;20028;-90
2022/06/01 06:46:09;;;;;;;22.20;15.00;;;;;;;11.85;88.38;101288.22;5057320;28;20024;-90
2022/06/01 06:48:35;;;;;;;20.10;14.17;;;;;;;11.93;87.97;101305.13;5050112;28;20029;-90
2022/06/01 06:51:01;;;;;;;20.43;14.40;;;;;;;12.17;89.94;101300.13;5056453;28;20129;-90
2022/06/01 06:53:28;;;;;;;22.50;13.43;;;;;;;12.18;87.86;101293.66;5039764;28;20067;-90
2022/06/01 06:55:53;;;;;;;19.07;12.43;;;;;;;12.30;85.66;101300.09;5055221;28;20024;-91
2022/06/01 06:58:19;;;;;;;17.47;11.80;;;;;;;12.38;84.65;101312.63;5053291;28;20040;-91
2022/06/01 07:00:45;;;;;;;17.03;12.03;;;;;;;12.50;85.65;101316.38;5057184;28;20396;-91
2022/06/01 07:03:10;;;;;;;16.67;11.43;;;;;;;12.44;84.23;101305.50;5054758;28;20032;-91
2022/06/01 07:08:20;;;;;;;15.50;11.23;;;;;;;12.69;84.69;101313.81;5056993;28;20102;-90
2022/06/01 07:10:46;;;;;;;19.10;12.20;;;;;;;12.79;84.30;101325.03;5055490;28;20036;-90
2022/06/01 07:13:11;;;;;;;17.00;11.30;;;;;;;12.83;84.70;101304.53;5055888;28;20639;-92
2022/06/01 07:15:37;;;;;;;17.30;11.10;;;;;;;13.08;84.11;101311.13;5051402;28;20037;-90
2022/06/01 07:18:04;;;;;;;16.30;10.20;;;;;;;13.04;81.21;101310.75;5056693;28;20472;-91
2022/06/01 07:20:30;;;;;;;16.13;9.90;;;;;;;13.15;82.00;101293.72;5057260;28;20056;-90
2022/06/01 07:22:56;;;;;;;13.53;9.47;;;;;;;13.30;79.63;101309.75;5055973;28;20906;-90
2022/06/01 07:25:22;;;;;;;12.00;7.93;;;;;;;13.51;78.67;101327.63;5055324;28;20024;-90
2022/06/01 07:27:49;;;;;;;12.77;7.40;;;;;;;13.55;77.09;101319.88;5055624;28;20059;-92
2022/06/01 07:30:16;;;;;;;12.93;8.40;;;;;;;13.65;78.24;101328.41;5056830;28;20095;-91
2022/06/01 07:32:48;;;;;;;12.83;8.60;;;;;;;13.78;79.18;101311.13;5056201;28;20189;-91
2022/06/01 07:35:15;;;;;;;12.67;7.73;;;;;;;13.84;77.22;101315.69;5054201;28;20028;-91
2022/06/01 07:43:10;;;;;;;12.13;7.75;;;;;;;13.98;76.25;101337.34;5056222;28;20145;-91
2022/06/01 07:45:44;;;;;;;12.67;8.00;;;;;;;13.86;75.84;101301.84;5072568;28;20635;-91
2022/06/01 07:48:09;;;;;;;12.10;8.43;;;;;;;14.09;75.64;101316.72;5054875;28;20171;-90
2022/06/01 07:50:36;;;;;;;13.00;9.00;;;;;;;14.32;78.43;101327.81;5055242;28;20081;-91
2022/06/01 07:53:05;;;;;;;14.37;8.67;;;;;;;14.23;77.50;101299.19;5052157;28;20041;-91
2022/06/01 07:55:30;;;;;;;13.17;8.87;;;;;;;14.17;74.30;101327.31;5050577;28;20465;-91
2022/06/01 07:57:56;;;;;;;11.40;7.53;;;;;;;14.11;73.91;101320.06;5052813;28;20056;-90
2022/06/01 08:00:22;;;;;;;13.37;7.57;;;;;;;14.17;72.51;101302.81;5056357;28;20032;-92
2022/06/01 08:02:47;;;;;;;12.43;8.23;;;;;;;14.44;74.80;101313.44;5049475;28;20032;-91
2022/06/01 08:05:15;;;;;;;10.90;8.20;;;;;;;14.43;72.66;101311.75;5055153;28;20475;-91
2022/06/01 08:07:42;;;;;;;12.27;7.73;;;;;;;14.43;70.87;101333.56;5054697;28;20060;-91
2022/06/01 08:10:09;;;;;;;10.57;8.23;;;;;;;14.42;74.46;101321.84;5054311;28;20047;-90
2022/06/01 08:15:19;;;;;;;12.23;8.18;;;;;;;14.79;71.08;101326.50;5056034;28;20113;-91
2022/06/01 08:17:46;;;;;;;13.63;7.83;;;;;;;14.94;69.52;101340.59;5054362;28;20465;-91
2022/06/01 08:20:12;;;;;;;15.63;8.10;;;;;;;15.03;70.01;101332.94;5055614;28;21448;-92
2022/06/01 08:22:39;;;;;;;11.73;8.00;;;;;;;15.11;69.99;101326.31;5053872;28;20548;-91
2022/06/01 08:25:06;;;;;;;11.20;7.67;;;;;;;15.52;70.92;101341.91;5053128;28;20121;-90
2022/06/01 08:27:32;;;;;;;10.33;7.23;;;;;;;15.24;66.46;101337.06;5053019;28;20032;-91
2022/06/01 08:29:57;;;;;;;11.30;8.00;;;;;;;15.03;67.95;101328.28;5036622;28;20036;-90
2022/06/01 08:32:23;;;;;;;11.37;8.67;;;;;;;14.89;68.91;101331.41;5049293;28;20024;-91
2022/06/01 08:34:48;;;;;;;12.17;7.50;;;;;;;14.89;68.27;101343.19;5054791;28;20861;-91
2022/06/01 08:37:14;;;;;;;13.93;9.13;;;;;;;15.28;69.99;101340.16;5046058;28;20086;-92
2022/06/01 08:39:39;;;;;;;11.90;9.23;;;;;;;15.50;69.06;101332.28;5049437;28;20029;-91
2022/06/01 08:42:05;;;;;;;9.97;8.33;;;;;;;15.65;68.55;101337.31;5046256;28;20047;-91
2022/06/01 08:44:36;;;;;;;8.87;7.73;;;;;;;15.60;67.34;101335.28;5071220;28;20108;-92
2022/06/01 08:47:09;;;;;;;10.47;8.03;;;;;;;15.53;65.95;101321.72;5045950;28;20400;-91
2022/06/01 08:49:36;;;;;;;10.27;7.53;;;;;;;15.51;66.48;101336.69;5049789;28;20055;-91
2022/06/01 08:52:02;;;;;;;11.63;7.67;;;;;;;15.28;64.55;101335.53;5045591;28;20469;-91
2022/06/01 08:54:27;;;;;;;9.47;7.23;;;;;;;15.13;64.81;101327.75;5053886;28;20036;-91
2022/06/01 08:57:01;;;;;;;10.07;7.30;;;;;;;14.98;64.10;101330.06;5054540;28;20025;-91
2022/06/01 08:59:33;;;;;;;9.77;7.38;;;;;;;15.12;65.24;101344.34;5054934;28;20036;-92
2022/06/01 09:02:15;;;;;;;11.90;8.17;;;;;;;15.03;64.08;101343.84;5055336;28;20089;-91
2022/06/01 09:05:04;;;;;;;9.37;8.17;;;;;;;15.72;65.27;101345.41;5048817;28;20028;-92
2022/06/01 09:07:37;;;;;;;9.53;6.97;;;;;;;16.04;64.82;101329.56;5053818;28;20036;-91
2022/06/01 09:10:48;;;;;;;8.35;6.10;;;;;;;16.01;61.29;101338.25;5053497;28;20575;-92
2022/06/01 09:13:23;;;;;;;8.17;6.03;;;;;;;15.87;60.93;101334.91;5055315;28;20066;-91
2022/06/01 09:16:57;;;;;;;11.70;6.20;;;;;;;15.82;62.66;101334.78;5052293;28;20070;-92
2022/06/01 09:25:01;;;;;;;9.10;6.20;;;;;;;14.87;63.47;101342.56;5059203;28;20086;-91
2022/06/01 09:27:39;;;;;;;10.47;7.50;;;;;;;14.76;66.96;101351.53;5058092;28;20033;-92
2022/06/01 09:30:36;;;;;;;7.73;6.93;;;;;;;14.56;66.31;101355.25;5055080;28;20499;-91
2022/06/01 09:33:24;;;;;;;12.37;8.10;;;;;;;14.16;71.16;101391.09;5054722;28;20786;-93
2022/06/01 09:36:10;;;;;;;15.33;8.87;;;;;;;13.22;76.08;101380.75;5057428;28;20508;-91
2022/06/01 09:38:48;;;;;;;7.83;6.50;;;;;;;12.48;77.05;101393.72;5053788;28;20515;-93
2022/06/01 09:41:19;;;;;;;7.10;5.63;;;;;;;12.19;79.13;101395.84;5065338;28;20115;-90
2022/06/01 09:43:54;;;;;;;5.03;4.00;;;;;;;11.68;76.69;101351.06;5063012;28;20531;-93
2022/06/01 09:46:32;;;;;;;5.43;4.38;;;;;;;11.66;80.79;101356.69;5058857;28;20036;-92
2022/06/01 09:48:58;;;;;;;4.53;4.13;;;;;;;11.61;81.07;101370.06;5065154;28;20033;-92
2022/06/01 09:51:25;;;;;;;4.63;4.23;;;;;;;11.63;82.63;101370.69;5060662;28;20392;-92
2022/06/01 09:53:52;;;;;;;6.63;5.03;;;;;;;11.72;86.35;101382.22;5042312;28;20131;-92
2022/06/01 09:56:31;;;;;;;4.93;3.80;;;;;;;11.78;84.61;101375.09;5051723;28;20556;-93
2022/06/01 10:07:28;;;;;;;5.30;4.80;;;;;;;12.19;85.93;101371.38;5058910;28;20094;-93
2022/06/01 10:10:00;;;;;;;5.70;4.10;;;;;;;12.19;83.31;101374.09;5054042;28;20024;-93
2022/06/01 10:12:50;;;;;;;4.33;3.80;;;;;;;12.24;84.13;101374.31;5049118;28;20044;-93
2022/06/01 10:15:30;;;;;;;4.37;3.97;;;;;;;12.28;84.07;101404.59;5055544;28;20477;-93
2022/06/01 10:18:00;;;;;;;4.80;4.40;;;;;;;11.94;84.16;101380.16;5048932;28;20376;-93
2022/06/01 10:20:35;;;;;;;4.60;4.20;;;;;;;12.14;83.54;101411.91;5049676;28;20066;-92
2022/06/01 10:23:19;;;;;;;4.93;4.50;;;;;;;11.97;84.42;101404.19;5051517;28;20024;-93
2022/06/01 10:25:54;;;;;;;5.13;4.63;;;;;;;11.90;84.34;101414.19;5054443;28;20016;-92
2022/06/01 10:28:33;;;;;;;6.80;4.97;;;;;;;11.90;83.65;101422.31;5053173;28;20241;-93
2022/06/01 10:31:02;;;;;;;8.07;6.00;;;;;;;11.69;84.93;101411.63;5057417;28;20122;-92
2022/06/01 10:33:43;;;;;;;8.23;6.13;;;;;;;11.77;85.60;101416.88;5057635;28;20060;-92
2022/06/01 10:36:21;;;;;;;8.57;6.67;;;;;;;11.72;85.33;101416.63;5056900;28;20034;-92
2022/06/01 10:39:03;;;;;;;10.63;7.00;;;;;;;11.59;84.27;101407.44;5052639;28;20032;-92
2022/06/01 10:41:48;;;;;;;7.37;6.67;;;;;;;11.72;84.86;101422.94;5051417;28;20043;-92
2022/06/01 10:44:28;;;;;;;7.47;6.68;;;;;;;11.76;85.08;101435.03;5058399;28;20362;-92
2022/06/01 10:47:00;;;;;;;8.50;7.53;;;;;;;11.69;85.59;101442.31;5052922;28;20038;-92
2022/06/01 10:49:41;;;;;;;9.27;7.77;;;;;;;11.47;85.92;101420.75;5050219;28;20653;-92
2022/06/01 10:52:32;;;;;;;9.37;8.27;;;;;;;11.59;85.04;101410.13;5058599;28;20056;-93
2022/06/01 10:55:28;;;;;;;11.03;8.37;;;;;;;11.75;85.02;101424.38;5051184;28;20028;-92
2022/06/01 10:57:58;;;;;;;10.00;8.20;;;;;;;11.71;84.47;101395.97;5050925;28;20518;-92
2022/06/01 11:00:32;;;;;;;10.47;7.47;;;;;;;11.91;84.27;101396.84;5053751;28;20036;-93
2022/06/01 11:03:23;;;;;;;8.77;7.47;;;;;;;12.11;84.63;101398.75;5049860;28;20032;-93
2022/06/01 11:05:59;;;;;;;11.17;7.77;;;;;;;12.37;84.49;101407.97;5057317;28;20081;-93
2022/06/01 11:08:52;;;;;;;8.87;7.30;;;;;;;12.57;83.55;101414.19;5049937;28;20036;-93
2022/06/01 11:11:29;;;;;;;8.77;7.30;;;;;;;12.72;82.81;101389.50;5056397;28;20036;-90
2022/06/01 11:14:23;;;;;;;7.93;6.50;;;;;;;12.98;79.69;101410.34;5078419;28;20032;-92
2022/06/01 11:16:58;;;;;;;6.77;6.17;;;;;;;13.22;79.08;101418.00;5085582;28;20117;-92
2022/06/01 11:19:52;;;;;;;9.30;6.40;;;;;;;13.46;79.21;101405.56;5085419;28;20044;-93
2022/06/01 11:22:39;;;;;;;8.77;6.22;;;;;;;13.73;78.59;101410.88;5080329;28;20028;-92
2022/06/01 11:25:18;;;;;;;6.90;6.20;;;;;;;13.70;76.95;101392.25;5081852;28;20134;-92
2022/06/01 11:28:00;;;;;;;7.93;6.50;;;;;;;13.88;75.80;101413.28;5072251;28;20052;-93
2022/06/01 11:31:21;;;;;;;10.03;7.83;;;;;;;14.08;78.37;101410.44;5084901;28;20062;-93
2022/06/01 11:34:05;;;;;;;9.00;7.47;;;;;;;14.18;74.31;101425.25;5010422;28;20034;-93
2022/06/01 11:36:39;;;;;;;10.05;7.32;;;;;;;14.09;74.15;101403.91;5021686;28;20033;-93
2022/06/01 11:39:18;;;;;;;9.88;7.47;;;;;;;14.41;74.26;101414.78;5057823;28;20733;-93
2022/06/01 11:41:56;;;;;;;8.50;7.30;;;;;;;14.86;75.94;101420.00;5074274;28;20028;-92
2022/06/01 11:44:35;;;;;;;10.50;7.33;;;;;;;14.92;74.25;101394.56;5084092;28;20028;-93
2022/06/01 11:47:15;;;;;;;10.50;7.10;;;;;;;14.84;71.27;101383.97;5077362;28;20107;-93
2022/06/01 11:49:43;;;;;;;9.67;7.03;;;;;;;15.31;69.11;101411.53;5093707;28;20024;-92
2022/06/01 11:52:29;;;;;;;7.63;5.80;;;;;;;15.76;69.57;101410.28;5065591;28;20031;-91
2022/06/01 11:55:15;;;;;;;7.07;6.03;;;;;;;15.96;65.75;101418.19;5063919;28;20115;-92
2022/06/01 11:58:04;;;;;;;6.40;5.77;;;;;;;16.03;66.47;101402.53;5063445;28;20518;-93
2022/06/01 12:00:55;;;;;;;6.40;5.70;;;;;;;16.38;67.58;101399.00;5066964;28;20033;-92
2022/06/01 12:03:20;;;;;;;7.37;4.93;;;;;;;16.61;64.60;101408.28;5062292;28;20032;-92
2022/06/01 12:06:04;;;;;;;5.20;4.70;;;;;;;16.81;62.96;101402.44;5069969;28;20439;-91
2022/06/01 12:08:48;;;;;;;5.32;4.80;;;;;;;16.92;63.51;101400.78;5070036;28;20081;-91
2022/06/01 12:11:38;;;;;;;5.22;4.65;;;;;;;16.97;64.81;101392.69;5063790;28;20071;-91
2022/06/01 12:14:26;;;;;;;4.40;3.70;;;;;;;16.74;59.86;101411.84;5059371;28;20083;-91